My Meet Scores
Jamie Skvarla, Gym Kinetics Gymnastics - MyMeetScores.com
Top100 | Top Teams | Upcoming Meets | Completed Meets | Latest | Add Scores | Help| Support | Bookmark and Share

Jamie Skvarla, Gym Kinetics Gymnastics
Personal Bests
LevelVault BarsBeamFloorAA
49.6009.475 9.4009.12537.500
59.0509.200 9.5509.32536.750
69.0508.800 9.3509.30035.950
70.0000.000 0.0000.0000.000
Meet Scores
Date Meet Team Session Level Division Vault Bars Beam Floor AA
2012-12-13 2012 Hawaiin Pineapple Classic Gym Kinetics Gymnastics 4 7 age 11 0.000 12 0.000 12 0.000 12 0.000 12 0.000 12
2012-03-16 2012 Illinois Level 6, 7 State Championships Gym Kinetics Gymnastics 1 6 ChildC 9.000 6T 8.650 7 9.000 9T 9.300 5 35.950 6
2012-02-25 Midwest Open 2012 Flipstar Gymnastics Academy 5B 6 Lvl 6: 8 to 10 8.850 15 8.650 21 9.350 7 8.950 12 35.800 11
2012-02-10 IGI Chicago Style Gymnastics Gym Kinetics Gymnastics 511 6 10 & Under 8.900 12T 8.600 9T 8.800 19T 8.650 26T 34.950 15
2012-01-20 Sand Dollar/ Whitlow Invitational Flipstar Gymnastics Academy E07 6 Jr A 8.250 7 8.800 1T 8.225 6 8.225 7 33.500 4
2012-01-06 2012 St. Jude Invite Flipstar Gymnastics Academy 6A 6 Child 9.050 9 8.650 7 9.100 8 8.450 15 35.250 7
2011-12-15 2011 Hawaiian Pineapple Classic Flipstar Gymnastics Academy 9B 6 10 8.650 6T 8.175 5 8.500 8 8.625 3 33.950 4
2011-11-18 2011 Thanksgiving Classic Gym Kinetics Gymnastics 4 6 7-10 8.975 6T 8.100 18 8.200 22 8.650 5T 33.925 17
2011-04-01 2011 Illinois Level 5 State Meet Gym Kinetics Gymnastics 6 5 Child.F 8.675 20 9.200 5 9.550 1 9.325 8 36.750 3
2011-03-04 Elgin Invite Flipstar Gymnastics Academy 9 5 9 8.375 11 8.700 16 9.000 14 8.825 21 34.900 12
2011-02-19 Big Dream Classic Gym Kinetics Gymnastics 2B 5 9 yrs 9.050 6 9.150 4 9.050 6 9.075 1 36.325 2
2011-02-11 IGI Chicago Style Gymnastics Meet Gym Kinetics Gymnastics 613 5 9 & Under 9.000 9T 8.350 25T 9.000 14T 9.175 10 35.525 14
2011-01-21 Bravo Classic Flipstar Gymnastics Academy 9B 5 9 8.550 9 9.000 14 9.325 5 8.400 22 35.275 11
2011-01-08 Crossroads Classic Gym Kinetics Gymnastics 1B 5 Ch 8.500 5 9.050 8 8.600 9 8.475 10 34.625 8T
2010-12-03 Make a Wish Gym Kinetics Gymnastics 9 5 9 8.650 6 8.800 10 9.350 2 8.500 19T 35.300 6
2010-03-26 2010 Illinois Level 4 State Championships Gym Kinetics Gymnastics 4 Youth.B 9.600 2 9.475 4 9.400 3 9.025 13 37.500 2
2010-02-12 IGI Chicago Style Gymnastics Meet Flipstar Gymnastics Academy 231 4 8 9.150 14T 8.850 16 9.300 4T 8.850 17 36.150 12
2010-01-29 Wisconsin Dells Gymnastics Vacation Classic Flipstar Gymnastics Academy 4C,4D 4 8 8.925 14 9.000 3T 8.200 16 9.125 4T 35.250 11
2009-12-04 Ultimate Wish Classic Flipstar Gymnastics Academy 5 4 Ch6-8 8.900 16T 9.475 3T 8.900 5T 8.800 10 36.075 6
2009-11-13 2009 North Judges Cup Gym Kinetics Sports Complex 4B 4 8 9.000 9 8.875 9 8.375 10 8.550 7 34.800 6

www.lazysuits.com